createdAt,value
2017-10-19T11:29:09.270Z,34528
2017-10-19T11:30:10.682Z,34720
2017-10-19T11:31:12.098Z,35040
2017-10-19T11:32:13.515Z,34784
2017-10-19T11:33:14.934Z,34976
2017-10-19T11:34:16.370Z,35168
2017-10-19T11:35:17.796Z,35296
2017-10-19T11:36:19.213Z,18720
2017-10-19T11:37:20.629Z,32640
2017-10-19T11:38:22.052Z,37120
2017-10-19T11:39:23.467Z,36448
2017-10-19T11:40:24.886Z,28256
2017-10-19T11:41:26.305Z,17856
2017-10-19T11:42:27.840Z,10264
2017-10-19T11:43:29.261Z,10836
2017-10-19T11:44:30.676Z,25888
2017-10-19T11:45:32.098Z,17696
2017-10-19T11:46:33.537Z,32608
2017-10-19T11:47:34.960Z,25440
2017-10-19T11:48:36.394Z,34752
2017-10-19T11:49:37.825Z,32384
2017-10-19T11:50:39.243Z,33184
2017-10-19T11:51:40.665Z,37600
2017-10-19T11:52:42.085Z,30208
2017-10-19T11:53:43.500Z,34752
2017-10-19T11:54:44.941Z,32608
2017-10-19T11:55:46.362Z,23680
2017-10-19T11:56:48.808Z,39328
2017-10-19T11:57:50.249Z,15872
2017-10-19T11:58:51.686Z,34880
2017-10-19T11:59:53.105Z,37600
2017-10-19T12:00:54.536Z,38688
2017-10-19T12:01:55.962Z,34272
2017-10-19T12:02:57.381Z,42848
2017-10-19T12:03:58.801Z,27072
2017-10-19T12:05:00.609Z,43872
2017-10-19T12:06:02.234Z,43488
2017-10-19T12:07:03.643Z,42944
2017-10-19T12:08:05.082Z,41056
2017-10-19T12:09:06.518Z,40512
2017-10-19T12:10:08.017Z,40288
2017-10-19T12:11:09.546Z,40992
2017-10-19T12:12:11.125Z,42048
2017-10-19T12:13:12.628Z,41920
2017-10-19T12:14:14.134Z,35936
2017-10-19T12:15:15.940Z,41248
2017-10-19T12:16:18.023Z,42112
2017-10-19T12:17:19.759Z,36064
2017-10-19T12:18:21.297Z,42816
2017-10-19T12:19:23.560Z,9228
2017-10-19T12:20:25.699Z,7592
2017-10-19T12:21:27.620Z,23776
2017-10-19T12:22:29.063Z,9608
2017-10-19T12:23:30.810Z,12772
2017-10-19T12:24:32.349Z,44960
2017-10-19T12:25:33.922Z,34240
2017-10-19T12:26:35.435Z,46016
2017-10-19T12:27:37.069Z,45984
2017-10-19T12:28:39.068Z,47424
2017-10-19T12:29:40.865Z,16416
2017-10-19T12:30:42.522Z,46144
2017-10-19T12:31:44.664Z,43488
2017-10-19T12:32:46.555Z,44992
2017-10-19T12:33:48.216Z,43200
2017-10-19T12:34:50.082Z,45120
2017-10-19T12:35:51.974Z,43424
2017-10-19T12:36:54.010Z,43584
2017-10-19T12:37:55.623Z,44672
2017-10-19T12:38:57.423Z,44000
2017-10-19T12:39:59.032Z,37216
2017-10-19T12:41:00.638Z,44096
2017-10-19T12:42:02.334Z,44320
2017-10-19T12:43:04.374Z,44128
2017-10-19T12:44:06.105Z,45696
2017-10-19T12:45:08.542Z,44640
2017-10-19T12:46:10.196Z,44704
2017-10-19T12:47:12.298Z,42176
2017-10-19T12:48:14.553Z,43488
2017-10-19T12:49:16.239Z,44928
2017-10-19T12:50:17.841Z,44896
2017-10-19T12:51:19.800Z,43840
2017-10-19T12:52:21.657Z,9036
2017-10-19T12:53:23.360Z,16192
2017-10-19T12:54:25.038Z,32224
2017-10-19T12:55:27.223Z,46720
2017-10-19T12:56:29.298Z,46592
2017-10-19T12:57:30.929Z,23552
2017-10-19T12:58:35.430Z,11576
2017-10-19T12:59:39.734Z,10656
2017-10-19T13:00:42.558Z,11272
2017-10-19T13:01:44.689Z,11600
2017-10-19T13:02:46.328Z,14964
2017-10-19T13:03:49.354Z,11920
2017-10-19T13:04:51.777Z,10436
2017-10-19T13:05:53.309Z,11040
2017-10-19T13:06:54.829Z,10660
2017-10-19T13:07:56.581Z,11776
2017-10-19T13:08:59.167Z,11368
2017-10-19T13:10:00.640Z,9412
2017-10-19T13:11:02.131Z,9828
2017-10-19T13:12:03.679Z,9216
2017-10-19T13:13:05.270Z,10972
2017-10-19T13:14:06.880Z,10188
2017-10-19T13:15:08.498Z,9688
2017-10-19T13:16:10.024Z,16672
2017-10-19T13:17:11.622Z,9076
2017-10-19T13:18:13.280Z,14536
2017-10-19T13:19:14.871Z,9784
2017-10-19T13:20:16.360Z,44192
2017-10-19T13:21:17.931Z,21888
2017-10-19T13:22:19.467Z,14260
2017-10-19T13:23:21.100Z,23200
2017-10-19T13:24:22.709Z,9444
2017-10-19T13:25:24.595Z,10844
2017-10-19T13:26:26.328Z,34240
2017-10-19T13:27:27.937Z,9268
2017-10-19T13:28:29.551Z,8296
2017-10-19T13:29:31.373Z,25760
2017-10-19T13:30:33.061Z,44160
2017-10-19T13:31:34.637Z,8416
2017-10-19T13:32:36.165Z,8356
2017-10-19T13:33:37.713Z,25248
2017-10-19T13:34:39.226Z,39520
2017-10-19T13:35:40.963Z,27744
2017-10-19T13:36:42.640Z,22208
2017-10-19T13:37:44.211Z,7864
2017-10-19T13:38:45.979Z,15456
2017-10-19T13:39:48.684Z,41504
2017-10-19T13:40:50.366Z,41088
2017-10-19T13:41:52.128Z,8096
2017-10-19T13:42:53.940Z,6456
2017-10-19T13:43:55.535Z,5996
2017-10-19T13:44:57.100Z,5728
2017-10-19T13:45:58.618Z,5904
2017-10-19T13:47:01.259Z,6576
2017-10-19T13:48:02.762Z,23712
2017-10-19T13:49:04.471Z,25888
2017-10-19T13:50:06.155Z,22112
2017-10-19T13:51:07.868Z,9184
2017-10-19T13:52:09.317Z,6648
2017-10-19T13:53:11.015Z,6320
2017-10-19T13:54:12.872Z,6084
2017-10-19T13:55:14.579Z,5924
2017-10-19T13:56:16.973Z,5764
2017-10-19T13:57:19.579Z,5816
2017-10-19T13:58:21.688Z,5968
2017-10-19T13:59:24.114Z,16256
2017-10-19T14:00:26.200Z,6980
2017-10-19T14:01:29.205Z,12060
2017-10-19T14:02:30.671Z,11760
2017-10-19T14:03:36.564Z,6784
2017-10-19T14:04:37.843Z,6264
2017-10-19T14:05:39.277Z,6292
2017-10-19T14:06:41.834Z,7084
2017-10-19T14:07:43.357Z,7080
2017-10-19T14:08:44.924Z,6984
2017-10-19T14:09:47.107Z,6676
2017-10-19T14:10:48.757Z,6184
2017-10-19T14:11:50.214Z,5840
2017-10-19T14:12:51.639Z,5640
2017-10-19T14:13:53.439Z,5680
2017-10-19T14:14:55.565Z,6988
2017-10-19T14:15:57.113Z,6180
2017-10-19T14:16:58.898Z,6348
2017-10-19T14:18:01.962Z,6296
2017-10-19T14:19:04.641Z,6232
2017-10-19T14:20:07.561Z,6100
2017-10-19T14:21:09.256Z,5920
2017-10-19T14:22:10.700Z,5768
2017-10-19T14:23:12.912Z,5760
2017-10-19T14:24:15.830Z,5820
2017-10-19T14:25:18.536Z,5864
2017-10-19T14:26:21.330Z,5908
2017-10-19T14:30:16.276Z,5536
2017-10-19T14:31:17.727Z,5288
2017-10-19T14:32:39.879Z,5060
2017-10-19T14:33:41.368Z,5224
2017-10-19T14:34:42.878Z,5624
2017-10-19T14:35:44.287Z,6944
2017-10-19T14:36:46.764Z,14336
2017-10-19T14:37:48.220Z,15776
2017-10-19T14:38:50.661Z,15616
2017-10-19T14:39:52.223Z,14848
2017-10-19T14:40:53.720Z,14912
2017-10-19T14:41:55.286Z,14880
2017-10-19T14:42:57.038Z,15584
2017-10-19T14:43:58.578Z,16352
2017-10-19T14:45:00.492Z,16128
2017-10-19T14:46:01.974Z,15808
2017-10-19T14:47:03.412Z,17120
2017-10-19T14:48:04.836Z,17728
2017-10-19T14:49:06.574Z,20832
2017-10-19T14:50:08.353Z,21824
2017-10-19T14:51:10.066Z,22784
2017-10-19T14:52:11.727Z,22816
2017-10-19T14:53:13.147Z,19552
2017-10-19T14:54:14.630Z,7036
2017-10-19T14:55:16.057Z,5312
2017-10-19T14:56:17.504Z,5112
2017-10-19T14:57:18.961Z,7400
2017-10-19T14:58:20.438Z,17696
2017-10-19T14:59:21.904Z,18336
2017-10-19T15:00:23.409Z,17440
2017-10-19T15:01:24.857Z,13920
2017-10-19T15:02:26.279Z,11816
2017-10-19T15:03:27.732Z,4588
2017-10-19T15:04:29.246Z,4024
2017-10-19T15:05:30.657Z,3696
2017-10-19T15:06:32.174Z,3440
2017-10-19T15:07:33.599Z,3196
2017-10-19T15:08:35.025Z,2988
2017-10-19T15:09:36.484Z,2832
2017-10-19T15:10:37.905Z,2736
2017-10-19T15:11:39.313Z,2628
2017-10-19T15:12:40.732Z,2520
2017-10-19T15:13:42.153Z,2344
2017-10-19T15:14:43.580Z,2100
2017-10-19T15:15:45.003Z,2088
2017-10-19T15:16:46.548Z,1928
2017-10-19T15:17:47.975Z,1836
2017-10-19T15:18:49.387Z,1892
2017-10-19T15:19:51.316Z,1960
2017-10-19T15:20:52.958Z,2128
2017-10-19T15:21:54.413Z,2068
2017-10-19T15:22:55.894Z,2076
2017-10-19T15:23:57.339Z,2180
2017-10-19T15:24:58.808Z,5600
2017-10-19T15:26:00.315Z,3792
2017-10-19T15:27:01.765Z,2540
2017-10-19T15:28:03.450Z,2040
2017-10-19T15:29:04.873Z,2104
2017-10-19T15:30:06.325Z,2088
2017-10-19T15:31:07.780Z,2104
2017-10-19T15:32:09.194Z,2096
2017-10-19T15:33:10.691Z,2100
2017-10-19T15:34:12.122Z,2108
2017-10-19T15:35:13.636Z,2104
2017-10-19T15:36:15.105Z,2092
2017-10-19T15:37:16.605Z,2088
2017-10-19T15:38:18.009Z,2108
2017-10-19T15:39:19.441Z,2144
2017-10-19T15:40:20.866Z,2164
2017-10-19T15:41:22.289Z,2160
2017-10-19T15:42:23.719Z,2132
2017-10-19T15:43:25.264Z,2124
2017-10-19T15:44:26.826Z,2100
2017-10-19T15:45:28.619Z,2076
2017-10-19T15:46:30.217Z,2024
2017-10-19T15:47:31.811Z,1960
2017-10-19T15:48:33.286Z,1828
2017-10-19T15:49:34.791Z,1668
2017-10-19T15:50:36.259Z,1504
2017-10-19T15:51:38.138Z,1356
2017-10-19T15:52:39.769Z,1232
2017-10-19T15:53:41.288Z,1132
2017-10-19T15:54:42.767Z,1032
2017-10-19T15:55:44.297Z,940
2017-10-19T15:56:45.848Z,860
2017-10-19T15:57:47.458Z,796
2017-10-19T15:58:49.158Z,752
2017-10-19T15:59:50.848Z,724
2017-10-19T16:00:52.484Z,684
2017-10-19T16:01:54.275Z,640
2017-10-19T16:03:07.144Z,596
2017-10-19T16:04:08.810Z,540
2017-10-19T16:05:50.041Z,468
2017-10-19T16:09:14.164Z,336
2017-10-19T16:10:15.741Z,304
2017-10-19T16:11:17.732Z,272
2017-10-19T16:12:19.231Z,244
2017-10-19T16:13:21.280Z,220
2017-10-19T16:14:22.988Z,200
2017-10-19T16:15:24.625Z,184
2017-10-19T16:16:26.403Z,164
2017-10-19T16:17:28.686Z,152
2017-10-19T16:18:30.884Z,140
2017-10-19T16:19:33.788Z,124
2017-10-19T16:20:36.627Z,108
2017-10-19T16:21:38.751Z,92
2017-10-19T16:22:40.563Z,80
2017-10-19T16:23:43.281Z,68
2017-10-19T16:24:45.068Z,56
2017-10-19T16:25:46.635Z,48
2017-10-19T16:26:48.172Z,40
2017-10-19T16:27:49.698Z,36
2017-10-19T16:28:51.177Z,32
2017-10-19T16:29:52.704Z,24
2017-10-19T16:30:54.211Z,20
2017-10-19T16:31:55.756Z,16
2017-10-19T16:32:57.372Z,12
2017-10-19T16:33:58.826Z,12
2017-10-19T16:35:00.302Z,12
2017-10-19T16:36:01.840Z,12
2017-10-19T16:37:03.369Z,4
2017-10-19T16:38:06.059Z,8
2017-10-19T16:39:07.634Z,4
2017-10-19T16:40:09.132Z,0
2017-10-19T16:41:10.628Z,4
2017-10-19T16:42:12.167Z,0
2017-10-19T16:43:13.695Z,4
2017-10-19T16:44:15.193Z,4
2017-10-19T16:45:16.689Z,0
2017-10-19T16:46:18.250Z,0
2017-10-19T16:47:19.862Z,0
2017-10-19T16:48:21.390Z,0
2017-10-19T16:49:23.168Z,0
2017-10-19T16:50:25.768Z,0
2017-10-19T16:51:29.517Z,0
2017-10-19T16:52:36.628Z,0
2017-10-19T16:53:38.668Z,0
2017-10-19T16:54:45.624Z,0
2017-10-19T16:55:47.990Z,0
2017-10-19T16:56:49.703Z,0
2017-10-19T16:57:51.446Z,0
2017-10-19T16:58:53.322Z,0
2017-10-19T16:59:55.105Z,0
2017-10-19T17:00:57.690Z,0
2017-10-19T17:01:59.522Z,0
2017-10-19T17:03:01.585Z,0
2017-10-19T17:04:50.393Z,0
2017-10-19T17:05:51.807Z,0
2017-10-19T17:06:53.473Z,0
2017-10-19T17:07:55.104Z,0
2017-10-19T17:08:56.906Z,0
2017-10-19T17:09:58.876Z,0
2017-10-19T17:11:01.226Z,0
2017-10-19T17:12:02.744Z,0
2017-10-19T17:13:04.267Z,0
2017-10-19T17:14:05.840Z,0
2017-10-19T17:15:07.346Z,0
2017-10-19T17:16:09.066Z,0
2017-10-19T17:17:11.272Z,0
2017-10-19T17:18:12.804Z,0
2017-10-19T17:19:14.296Z,0
2017-10-19T17:20:15.847Z,0
2017-10-19T17:21:17.711Z,0
2017-10-19T17:22:19.120Z,0
2017-10-19T17:23:20.606Z,0
2017-10-19T17:24:22.044Z,0
2017-10-19T17:25:23.565Z,0
2017-10-19T17:26:25.107Z,0
2017-10-19T17:27:26.604Z,0
2017-10-19T17:28:28.132Z,0
2017-10-19T17:29:29.602Z,0
2017-10-19T17:30:31.062Z,0
2017-10-19T17:31:32.543Z,0
2017-10-19T17:32:34.006Z,0
2017-10-19T17:33:35.473Z,0
2017-10-19T17:34:37.543Z,0
2017-10-19T17:35:39.004Z,0
2017-10-19T17:36:40.447Z,0
2017-10-19T17:37:41.872Z,0
2017-10-19T17:38:43.285Z,0
2017-10-19T17:39:44.693Z,0
2017-10-19T17:40:46.127Z,0
2017-10-19T17:41:47.623Z,0
2017-10-19T17:42:49.107Z,0
2017-10-19T17:43:50.741Z,0
2017-10-19T17:44:52.317Z,0
2017-10-19T17:45:53.853Z,0
2017-10-19T17:46:55.365Z,0
2017-10-19T17:47:57.009Z,0
2017-10-19T17:48:59.023Z,0
2017-10-19T17:50:00.462Z,0
2017-10-19T17:51:01.902Z,0
2017-10-19T17:52:03.391Z,0
2017-10-19T17:53:04.868Z,0
2017-10-19T17:54:06.295Z,0
2017-10-19T17:55:07.733Z,0
2017-10-19T17:56:09.244Z,0
2017-10-19T17:57:10.691Z,0
2017-10-19T17:58:12.159Z,0
2017-10-19T17:59:13.600Z,0
2017-10-19T18:00:15.061Z,0
2017-10-19T18:01:16.771Z,0
2017-10-19T18:02:18.220Z,0
2017-10-19T18:03:19.689Z,0
2017-10-19T18:04:21.165Z,0
2017-10-19T18:05:22.613Z,0
2017-10-19T18:06:24.469Z,0
2017-10-19T18:07:26.132Z,0
2017-10-19T18:08:27.656Z,0
2017-10-19T18:09:29.428Z,0
2017-10-19T18:10:31.951Z,0
2017-10-19T18:11:33.550Z,0
2017-10-19T18:12:35.042Z,0
2017-10-19T18:13:36.486Z,0
2017-10-19T18:14:37.892Z,0
2017-10-19T18:15:39.320Z,0
2017-10-19T18:16:40.735Z,0
2017-10-19T18:17:42.163Z,0
2017-10-19T18:18:43.589Z,0
2017-10-19T18:19:45.064Z,0
2017-10-19T18:20:46.538Z,0
2017-10-19T18:21:48.011Z,0
2017-10-19T18:22:49.515Z,0
2017-10-19T18:23:51.020Z,0
2017-10-19T18:24:52.494Z,0
2017-10-19T18:25:53.976Z,0
2017-10-19T18:26:55.493Z,0
2017-10-19T18:27:57.115Z,0
2017-10-19T18:28:59.076Z,0
2017-10-19T18:30:00.785Z,0
2017-10-19T18:31:02.241Z,0
2017-10-19T18:32:03.844Z,0
2017-10-19T18:33:05.300Z,0
2017-10-19T18:34:06.846Z,0
2017-10-19T18:35:08.341Z,0
2017-10-19T18:36:09.813Z,0
2017-10-19T18:37:51.032Z,0
2017-10-19T18:39:32.000Z,0
2017-10-19T18:40:33.430Z,0
2017-10-19T18:42:15.510Z,0
2017-10-19T18:43:56.455Z,0
2017-10-19T18:45:37.484Z,0
2017-10-19T18:47:18.473Z,0
2017-10-19T18:49:01.517Z,0
2017-10-19T18:50:04.001Z,0
2017-10-19T18:51:05.450Z,0
2017-10-19T18:52:06.874Z,0
2017-10-19T18:53:08.303Z,0
2017-10-19T18:54:11.318Z,0
2017-10-19T18:55:12.759Z,0
2017-10-19T18:56:14.208Z,0
2017-10-19T18:57:15.698Z,0
2017-10-19T18:58:17.350Z,0
2017-10-19T18:59:18.815Z,0
2017-10-19T19:00:23.422Z,0
2017-10-19T19:01:24.996Z,0
2017-10-19T19:02:26.425Z,0
2017-10-19T19:03:27.933Z,0
2017-10-19T19:04:29.422Z,0
2017-10-19T19:05:30.955Z,0
2017-10-19T19:06:32.619Z,0
2017-10-19T19:07:34.087Z,0
2017-10-19T19:08:35.564Z,0
2017-10-19T19:09:37.050Z,0
2017-10-19T19:10:38.693Z,0
2017-10-19T19:11:40.268Z,0
2017-10-19T19:12:41.783Z,0
2017-10-19T19:13:43.290Z,0
2017-10-19T19:14:44.851Z,0
2017-10-19T19:15:46.306Z,0
2017-10-19T19:16:47.814Z,0
2017-10-19T19:17:49.286Z,0
2017-10-19T19:18:50.738Z,0
2017-10-19T19:19:52.228Z,0
2017-10-19T19:20:53.735Z,0
2017-10-19T19:21:55.259Z,0
2017-10-19T19:22:56.720Z,0
2017-10-19T19:23:58.245Z,0
2017-10-19T19:24:59.864Z,0
2017-10-19T19:26:01.411Z,0
2017-10-19T19:27:02.934Z,0
2017-10-19T19:28:04.435Z,0
2017-10-19T19:29:05.927Z,0
2017-10-19T19:30:07.431Z,0
2017-10-19T19:31:08.894Z,0
2017-10-19T19:32:10.420Z,0
2017-10-19T19:33:12.080Z,0
2017-10-19T19:34:13.573Z,0
2017-10-19T19:35:15.116Z,0
2017-10-19T19:36:16.567Z,0
2017-10-19T19:37:18.023Z,0
2017-10-19T19:38:19.494Z,0
2017-10-19T19:39:20.899Z,0
2017-10-19T19:40:22.349Z,0
2017-10-19T19:41:23.763Z,0
2017-10-19T19:42:25.178Z,0
2017-10-19T19:43:26.582Z,0
2017-10-19T19:44:28.000Z,0
2017-10-19T19:45:29.451Z,0
2017-10-19T19:46:30.882Z,0
2017-10-19T19:47:32.359Z,0
2017-10-19T19:48:33.838Z,0
2017-10-19T19:49:35.333Z,0
2017-10-19T19:50:36.735Z,0
2017-10-19T19:51:38.149Z,0
2017-10-19T19:52:39.547Z,0
2017-10-19T19:53:40.950Z,0
2017-10-19T19:54:42.349Z,0
2017-10-19T19:55:43.754Z,0
2017-10-19T19:56:45.149Z,0
2017-10-19T19:57:46.551Z,0
2017-10-19T19:58:47.958Z,0
2017-10-19T19:59:49.359Z,0
2017-10-19T20:00:50.809Z,0
2017-10-19T20:01:52.206Z,0
2017-10-19T20:02:53.613Z,0
2017-10-19T20:03:55.038Z,0
2017-10-19T20:04:56.430Z,0
2017-10-19T20:05:57.832Z,0
2017-10-19T20:06:59.241Z,0
2017-10-19T20:08:00.647Z,0
2017-10-19T20:09:02.053Z,0
2017-10-19T20:10:03.498Z,0
2017-10-19T20:11:04.895Z,0
2017-10-19T20:12:06.350Z,0
2017-10-19T20:13:07.747Z,0
2017-10-19T20:14:09.147Z,0
2017-10-19T20:15:10.550Z,0
2017-10-19T20:16:11.947Z,0
2017-10-19T20:17:13.354Z,0
2017-10-19T20:18:14.760Z,0
2017-10-19T20:19:16.292Z,0
2017-10-19T20:20:17.680Z,0
2017-10-19T20:21:19.243Z,0
2017-10-19T20:22:20.684Z,0
2017-10-19T20:23:22.149Z,0
2017-10-19T20:24:23.808Z,0
2017-10-19T20:25:25.350Z,0
2017-10-19T20:26:26.823Z,0
2017-10-19T20:27:28.422Z,0
2017-10-19T20:28:30.556Z,0
2017-10-19T20:29:32.409Z,0
2017-10-19T20:30:34.440Z,0
2017-10-19T20:31:35.962Z,0
2017-10-19T20:32:37.356Z,0
2017-10-19T20:33:39.433Z,0
2017-10-19T20:34:41.014Z,0
2017-10-19T20:35:42.442Z,0
2017-10-19T20:36:43.950Z,0
2017-10-19T20:37:45.404Z,0
2017-10-19T20:38:47.396Z,0
2017-10-19T20:39:48.781Z,0
2017-10-19T20:40:50.182Z,0
2017-10-19T20:41:51.595Z,0
2017-10-19T20:42:53.126Z,0
2017-10-19T20:43:54.588Z,0
2017-10-19T20:44:55.993Z,0
2017-10-19T20:45:57.414Z,0
2017-10-19T20:46:58.859Z,0
2017-10-19T20:48:00.457Z,0
2017-10-19T20:49:02.002Z,0
2017-10-19T20:50:03.566Z,0
2017-10-19T20:51:05.337Z,0
2017-10-19T20:52:07.070Z,0
2017-10-19T20:53:08.490Z,0
2017-10-19T20:54:09.892Z,0
2017-10-19T20:55:11.313Z,0
2017-10-19T20:56:12.747Z,0
2017-10-19T20:57:14.155Z,0
2017-10-19T20:58:15.581Z,0
2017-10-19T20:59:16.969Z,0
2017-10-19T21:00:18.435Z,0
2017-10-19T21:01:19.945Z,0
2017-10-19T21:02:21.622Z,0
2017-10-19T21:03:23.003Z,0
2017-10-19T21:04:24.418Z,0
2017-10-19T21:05:25.919Z,0
2017-10-19T21:06:27.384Z,0
2017-10-19T21:07:28.825Z,0
2017-10-19T21:08:30.331Z,0
2017-10-19T21:09:31.994Z,0
2017-10-19T21:10:33.604Z,0
2017-10-19T21:11:35.157Z,0
2017-10-19T21:12:36.886Z,0
2017-10-19T21:13:38.408Z,0
2017-10-19T21:14:40.007Z,0
2017-10-19T21:15:41.452Z,0
2017-10-19T21:16:43.467Z,0
2017-10-19T21:17:44.997Z,0
2017-10-19T21:18:46.760Z,0
2017-10-19T21:19:48.245Z,0
2017-10-19T21:20:49.831Z,0
2017-10-19T21:21:52.025Z,0
2017-10-19T21:23:23.776Z,0
2017-10-19T21:24:26.235Z,0
2017-10-19T21:25:28.508Z,0
2017-10-19T21:26:29.911Z,0
2017-10-19T21:27:31.400Z,0
2017-10-19T21:28:33.179Z,0
2017-10-19T21:29:34.593Z,0
2017-10-19T21:30:36.034Z,0
2017-10-19T21:31:37.476Z,0
2017-10-19T21:32:38.895Z,0
2017-10-19T21:33:40.383Z,0
2017-10-19T21:34:41.947Z,0
2017-10-19T21:35:43.420Z,0
2017-10-19T21:36:44.998Z,0
2017-10-19T21:37:46.481Z,0
2017-10-19T21:38:47.956Z,0
2017-10-19T21:39:50.481Z,0
2017-10-19T21:40:51.998Z,0
2017-10-19T21:41:53.563Z,0
2017-10-19T21:42:55.556Z,0
2017-10-19T21:43:57.907Z,0
2017-10-19T21:44:59.361Z,0
2017-10-19T21:46:01.010Z,0
2017-10-19T21:47:02.524Z,0
2017-10-19T21:48:04.301Z,0
2017-10-19T21:49:05.874Z,0
2017-10-19T21:50:08.363Z,0
2017-10-19T21:51:09.819Z,0
2017-10-19T21:52:11.429Z,0
2017-10-19T21:53:12.744Z,0
2017-10-19T21:54:15.017Z,0
2017-10-19T21:55:16.627Z,0
2017-10-19T21:56:18.445Z,0
2017-10-19T21:57:19.760Z,0
2017-10-19T21:58:21.211Z,0
2017-10-19T21:59:22.855Z,0
2017-10-19T22:00:24.617Z,0
2017-10-19T22:01:26.194Z,0
2017-10-19T22:02:28.084Z,0
2017-10-19T22:03:29.555Z,0
2017-10-19T22:04:31.011Z,0
2017-10-19T22:05:33.008Z,0
2017-10-19T22:06:34.467Z,0
2017-10-19T22:07:35.970Z,0
2017-10-19T22:08:37.441Z,0
2017-10-19T22:09:40.070Z,0
2017-10-19T22:10:41.488Z,0
2017-10-19T22:11:43.031Z,0
2017-10-19T22:12:44.449Z,0
2017-10-19T22:13:45.838Z,0
2017-10-19T22:14:47.245Z,0
2017-10-19T22:15:48.835Z,0
2017-10-19T22:16:50.264Z,0
2017-10-19T22:17:51.742Z,0
2017-10-19T22:18:53.210Z,0
2017-10-19T22:19:54.715Z,0
2017-10-19T22:20:56.346Z,0
2017-10-19T22:21:57.940Z,0
2017-10-19T22:22:59.409Z,0
2017-10-19T22:24:00.891Z,0
2017-10-19T22:25:02.366Z,0
2017-10-19T22:26:03.770Z,0
2017-10-19T22:27:05.208Z,0
2017-10-19T22:28:06.657Z,0
2017-10-19T22:29:08.112Z,0
2017-10-19T22:30:09.541Z,0
2017-10-19T22:31:10.991Z,0
2017-10-19T22:32:12.446Z,0
2017-10-19T22:33:13.860Z,0
2017-10-19T22:34:15.302Z,0
2017-10-19T22:35:16.742Z,0
2017-10-19T22:36:18.198Z,0
2017-10-19T22:37:19.679Z,0
2017-10-19T22:38:21.155Z,0
2017-10-19T22:39:22.622Z,0
2017-10-19T22:40:24.195Z,0
2017-10-19T22:41:25.694Z,0
2017-10-19T22:42:27.141Z,0
2017-10-19T22:43:28.599Z,0
2017-10-19T22:44:30.022Z,0
2017-10-19T22:45:31.493Z,0
2017-10-19T22:46:32.952Z,0
2017-10-19T22:47:34.464Z,0
2017-10-19T22:48:36.204Z,0
2017-10-19T22:49:37.643Z,0
2017-10-19T22:50:39.053Z,0
2017-10-19T22:51:40.505Z,0
2017-10-19T22:52:41.946Z,0
2017-10-19T22:53:43.375Z,0
2017-10-19T22:54:44.847Z,0
2017-10-19T22:55:46.336Z,0
2017-10-19T22:56:47.814Z,0
2017-10-19T22:57:49.331Z,0
2017-10-19T22:58:50.787Z,0
2017-10-19T22:59:52.207Z,0
2017-10-19T23:00:53.791Z,0
2017-10-19T23:01:55.233Z,0
2017-10-19T23:02:56.728Z,0
2017-10-19T23:03:58.145Z,0
2017-10-19T23:04:59.645Z,0
2017-10-19T23:06:01.164Z,0
2017-10-19T23:07:02.670Z,0
2017-10-19T23:08:04.090Z,0
2017-10-19T23:09:05.547Z,0
2017-10-19T23:10:07.211Z,0
2017-10-19T23:11:09.278Z,0
2017-10-19T23:12:10.707Z,0
2017-10-19T23:13:12.188Z,0
2017-10-19T23:14:13.839Z,0
2017-10-19T23:15:15.525Z,0
2017-10-19T23:16:16.928Z,0
2017-10-19T23:17:18.860Z,0
2017-10-19T23:18:20.254Z,0
2017-10-19T23:19:21.653Z,0
2017-10-19T23:20:23.260Z,0
2017-10-19T23:21:24.964Z,0
2017-10-19T23:22:26.475Z,0
2017-10-19T23:23:28.162Z,0
2017-10-19T23:24:29.372Z,0
2017-10-19T23:25:30.769Z,0
2017-10-19T23:26:32.176Z,0
2017-10-19T23:27:33.735Z,0
2017-10-19T23:28:35.631Z,0
2017-10-19T23:29:37.298Z,0
2017-10-19T23:30:38.962Z,0
2017-10-19T23:31:40.411Z,0
2017-10-19T23:32:42.229Z,0
2017-10-19T23:33:44.165Z,0
2017-10-19T23:34:46.824Z,0
2017-10-19T23:35:48.285Z,0
2017-10-19T23:36:49.853Z,0
2017-10-19T23:37:51.681Z,0
2017-10-19T23:38:53.796Z,0
2017-10-19T23:39:56.337Z,0
2017-10-19T23:40:58.069Z,0
2017-10-19T23:41:59.789Z,0
2017-10-19T23:43:01.150Z,0
2017-10-19T23:44:02.798Z,0
2017-10-19T23:45:04.221Z,0
2017-10-19T23:46:05.643Z,0
2017-10-19T23:47:07.071Z,0
2017-10-19T23:48:08.763Z,0
2017-10-19T23:49:10.327Z,0
2017-10-19T23:50:12.153Z,0
2017-10-19T23:51:13.957Z,0
2017-10-19T23:52:15.878Z,0
2017-10-19T23:53:18.657Z,0
2017-10-19T23:54:20.366Z,0
2017-10-19T23:55:22.808Z,0
2017-10-19T23:56:24.563Z,0
2017-10-19T23:57:26.614Z,0
2017-10-19T23:58:28.588Z,0
2017-10-19T23:59:31.317Z,0
